sensor_id;sensor_type;location;lat;lon;timestamp;P1;durP1;ratioP1;P2;durP2;ratioP2
77136;SDS011;66102;48.542;-2.970;2023-02-15T00:01:29;19.30;;;10.45;;
77136;SDS011;66102;48.542;-2.970;2023-02-15T00:03:55;21.02;;;10.15;;
77136;SDS011;66102;48.542;-2.970;2023-02-15T00:06:21;15.15;;;8.95;;
77136;SDS011;66102;48.542;-2.970;2023-02-15T00:08:48;17.42;;;9.75;;
77136;SDS011;66102;48.542;-2.970;2023-02-15T00:11:15;15.40;;;9.73;;
77136;SDS011;66102;48.542;-2.970;2023-02-15T00:13:41;16.63;;;8.65;;
77136;SDS011;66102;48.542;-2.970;2023-02-15T00:16:11;15.23;;;8.45;;
77136;SDS011;66102;48.542;-2.970;2023-02-15T00:18:38;16.48;;;8.68;;
77136;SDS011;66102;48.542;-2.970;2023-02-15T00:21:05;13.00;;;6.88;;
77136;SDS011;66102;48.542;-2.970;2023-02-15T00:23:32;17.20;;;8.20;;
77136;SDS011;66102;48.542;-2.970;2023-02-15T00:28:30;12.05;;;6.80;;
77136;SDS011;66102;48.542;-2.970;2023-02-15T00:31:02;14.52;;;7.68;;
77136;SDS011;66102;48.542;-2.970;2023-02-15T00:33:28;14.52;;;7.13;;
77136;SDS011;66102;48.542;-2.970;2023-02-15T00:35:57;12.88;;;6.80;;
77136;SDS011;66102;48.542;-2.970;2023-02-15T00:38:23;16.52;;;8.40;;
77136;SDS011;66102;48.542;-2.970;2023-02-15T00:40:53;15.43;;;8.32;;
77136;SDS011;66102;48.542;-2.970;2023-02-15T00:43:19;15.00;;;8.05;;
77136;SDS011;66102;48.542;-2.970;2023-02-15T00:45:45;16.15;;;8.20;;
77136;SDS011;66102;48.542;-2.970;2023-02-15T00:48:11;14.68;;;7.85;;
77136;SDS011;66102;48.542;-2.970;2023-02-15T00:50:37;16.10;;;8.15;;
77136;SDS011;66102;48.542;-2.970;2023-02-15T00:53:03;14.00;;;8.20;;
77136;SDS011;66102;48.542;-2.970;2023-02-15T00:55:29;15.55;;;8.18;;
77136;SDS011;66102;48.542;-2.970;2023-02-15T00:57:55;16.13;;;7.45;;
77136;SDS011;66102;48.542;-2.970;2023-02-15T01:00:21;14.20;;;8.13;;
77136;SDS011;66102;48.542;-2.970;2023-02-15T01:02:48;14.15;;;8.57;;
77136;SDS011;66102;48.542;-2.970;2023-02-15T01:05:14;14.15;;;7.90;;
77136;SDS011;66102;48.542;-2.970;2023-02-15T01:07:40;13.60;;;7.68;;
77136;SDS011;66102;48.542;-2.970;2023-02-15T01:10:06;12.55;;;7.40;;
77136;SDS011;66102;48.542;-2.970;2023-02-15T01:12:33;16.05;;;8.10;;
77136;SDS011;66102;48.542;-2.970;2023-02-15T01:14:59;15.45;;;8.77;;
77136;SDS011;66102;48.542;-2.970;2023-02-15T01:17:25;15.70;;;8.98;;
77136;SDS011;66102;48.542;-2.970;2023-02-15T01:19:51;15.55;;;7.80;;
77136;SDS011;66102;48.542;-2.970;2023-02-15T01:22:18;17.08;;;7.90;;
77136;SDS011;66102;48.542;-2.970;2023-02-15T01:24:44;14.52;;;8.25;;
77136;SDS011;66102;48.542;-2.970;2023-02-15T01:27:10;16.05;;;8.55;;
77136;SDS011;66102;48.542;-2.970;2023-02-15T01:29:36;14.18;;;7.80;;
77136;SDS011;66102;48.542;-2.970;2023-02-15T01:32:02;14.90;;;8.25;;
77136;SDS011;66102;48.542;-2.970;2023-02-15T01:34:29;14.30;;;7.53;;
77136;SDS011;66102;48.542;-2.970;2023-02-15T01:36:55;15.10;;;8.68;;
77136;SDS011;66102;48.542;-2.970;2023-02-15T01:39:21;15.32;;;8.05;;
77136;SDS011;66102;48.542;-2.970;2023-02-15T01:41:47;14.32;;;7.63;;
77136;SDS011;66102;48.542;-2.970;2023-02-15T01:46:58;14.45;;;8.32;;
77136;SDS011;66102;48.542;-2.970;2023-02-15T01:49:24;13.60;;;7.70;;
77136;SDS011;66102;48.542;-2.970;2023-02-15T01:51:50;15.32;;;8.73;;
77136;SDS011;66102;48.542;-2.970;2023-02-15T01:54:25;13.18;;;7.63;;
77136;SDS011;66102;48.542;-2.970;2023-02-15T01:56:53;15.23;;;9.18;;
77136;SDS011;66102;48.542;-2.970;2023-02-15T01:59:21;15.20;;;8.65;;
77136;SDS011;66102;48.542;-2.970;2023-02-15T02:01:47;15.25;;;8.60;;
77136;SDS011;66102;48.542;-2.970;2023-02-15T02:04:34;17.08;;;8.57;;
77136;SDS011;66102;48.542;-2.970;2023-02-15T02:07:01;15.73;;;8.35;;
77136;SDS011;66102;48.542;-2.970;2023-02-15T02:09:28;16.08;;;9.23;;
77136;SDS011;66102;48.542;-2.970;2023-02-15T02:11:54;17.20;;;8.43;;
77136;SDS011;66102;48.542;-2.970;2023-02-15T02:14:21;14.40;;;8.40;;
77136;SDS011;66102;48.542;-2.970;2023-02-15T02:24:34;14.77;;;7.80;;
77136;SDS011;66102;48.542;-2.970;2023-02-15T02:34:45;12.50;;;7.18;;
77136;SDS011;66102;48.542;-2.970;2023-02-15T02:37:23;14.80;;;7.43;;
77136;SDS011;66102;48.542;-2.970;2023-02-15T02:47:51;15.75;;;8.23;;
77136;SDS011;66102;48.542;-2.970;2023-02-15T02:50:22;16.60;;;7.80;;
77136;SDS011;66102;48.542;-2.970;2023-02-15T02:52:49;15.68;;;8.63;;
77136;SDS011;66102;48.542;-2.970;2023-02-15T03:00:14;16.10;;;9.13;;
77136;SDS011;66102;48.542;-2.970;2023-02-15T03:02:41;15.13;;;8.82;;
77136;SDS011;66102;48.542;-2.970;2023-02-15T03:05:10;15.32;;;8.55;;
77136;SDS011;66102;48.542;-2.970;2023-02-15T03:07:38;13.57;;;8.38;;
77136;SDS011;66102;48.542;-2.970;2023-02-15T03:10:05;14.95;;;7.40;;
77136;SDS011;66102;48.542;-2.970;2023-02-15T03:12:34;16.00;;;8.35;;
77136;SDS011;66102;48.542;-2.970;2023-02-15T03:15:20;19.25;;;9.10;;
77136;SDS011;66102;48.542;-2.970;2023-02-15T03:17:51;16.00;;;8.27;;
77136;SDS011;66102;48.542;-2.970;2023-02-15T03:20:20;14.52;;;7.50;;
77136;SDS011;66102;48.542;-2.970;2023-02-15T03:25:20;17.40;;;8.48;;
77136;SDS011;66102;48.542;-2.970;2023-02-15T03:30:13;13.32;;;7.72;;
77136;SDS011;66102;48.542;-2.970;2023-02-15T03:32:40;16.85;;;8.45;;
77136;SDS011;66102;48.542;-2.970;2023-02-15T03:35:07;13.75;;;7.57;;
77136;SDS011;66102;48.542;-2.970;2023-02-15T03:37:39;15.25;;;8.65;;
77136;SDS011;66102;48.542;-2.970;2023-02-15T03:40:23;16.52;;;8.25;;
77136;SDS011;66102;48.542;-2.970;2023-02-15T03:43:17;16.27;;;7.63;;
77136;SDS011;66102;48.542;-2.970;2023-02-15T03:45:45;15.65;;;9.23;;
77136;SDS011;66102;48.542;-2.970;2023-02-15T03:48:24;11.43;;;6.97;;
77136;SDS011;66102;48.542;-2.970;2023-02-15T03:50:52;15.10;;;7.65;;
77136;SDS011;66102;48.542;-2.970;2023-02-15T03:53:48;13.52;;;7.80;;
77136;SDS011;66102;48.542;-2.970;2023-02-15T03:56:16;13.13;;;7.70;;
77136;SDS011;66102;48.542;-2.970;2023-02-15T03:58:42;16.08;;;9.07;;
77136;SDS011;66102;48.542;-2.970;2023-02-15T04:04:33;13.45;;;7.05;;
77136;SDS011;66102;48.542;-2.970;2023-02-15T04:07:00;15.27;;;7.05;;
77136;SDS011;66102;48.542;-2.970;2023-02-15T04:09:26;13.07;;;6.97;;
77136;SDS011;66102;48.542;-2.970;2023-02-15T04:12:10;12.50;;;6.95;;
77136;SDS011;66102;48.542;-2.970;2023-02-15T04:14:36;12.00;;;6.43;;
77136;SDS011;66102;48.542;-2.970;2023-02-15T04:17:21;13.27;;;6.82;;
77136;SDS011;66102;48.542;-2.970;2023-02-15T04:19:47;12.70;;;7.20;;
77136;SDS011;66102;48.542;-2.970;2023-02-15T04:22:32;16.00;;;7.95;;
77136;SDS011;66102;48.542;-2.970;2023-02-15T04:25:17;12.93;;;6.93;;
77136;SDS011;66102;48.542;-2.970;2023-02-15T04:27:44;13.73;;;7.53;;
77136;SDS011;66102;48.542;-2.970;2023-02-15T04:30:11;12.18;;;6.97;;
77136;SDS011;66102;48.542;-2.970;2023-02-15T04:32:38;13.65;;;6.72;;
77136;SDS011;66102;48.542;-2.970;2023-02-15T04:35:04;13.48;;;7.80;;
77136;SDS011;66102;48.542;-2.970;2023-02-15T04:37:31;16.52;;;8.75;;
77136;SDS011;66102;48.542;-2.970;2023-02-15T04:39:57;16.45;;;8.18;;
77136;SDS011;66102;48.542;-2.970;2023-02-15T04:42:26;12.32;;;7.20;;
77136;SDS011;66102;48.542;-2.970;2023-02-15T04:44:53;13.88;;;7.07;;
77136;SDS011;66102;48.542;-2.970;2023-02-15T04:47:19;12.82;;;6.60;;
77136;SDS011;66102;48.542;-2.970;2023-02-15T04:49:46;11.35;;;5.97;;
77136;SDS011;66102;48.542;-2.970;2023-02-15T04:52:12;15.75;;;7.20;;
77136;SDS011;66102;48.542;-2.970;2023-02-15T04:54:38;12.23;;;7.28;;
77136;SDS011;66102;48.542;-2.970;2023-02-15T04:57:04;12.95;;;7.40;;
77136;SDS011;66102;48.542;-2.970;2023-02-15T04:59:31;14.63;;;7.78;;
77136;SDS011;66102;48.542;-2.970;2023-02-15T05:01:57;12.77;;;6.75;;
77136;SDS011;66102;48.542;-2.970;2023-02-15T05:04:23;13.00;;;6.78;;
77136;SDS011;66102;48.542;-2.970;2023-02-15T05:06:49;13.55;;;8.20;;
77136;SDS011;66102;48.542;-2.970;2023-02-15T05:09:15;14.40;;;7.43;;
77136;SDS011;66102;48.542;-2.970;2023-02-15T05:11:42;12.68;;;6.57;;
77136;SDS011;66102;48.542;-2.970;2023-02-15T05:14:08;14.52;;;7.47;;
77136;SDS011;66102;48.542;-2.970;2023-02-15T05:16:34;15.13;;;7.30;;
77136;SDS011;66102;48.542;-2.970;2023-02-15T05:19:00;14.02;;;7.28;;
77136;SDS011;66102;48.542;-2.970;2023-02-15T05:21:26;16.27;;;7.80;;
77136;SDS011;66102;48.542;-2.970;2023-02-15T05:23:52;16.38;;;9.35;;
77136;SDS011;66102;48.542;-2.970;2023-02-15T05:26:20;13.43;;;6.68;;
77136;SDS011;66102;48.542;-2.970;2023-02-15T05:29:05;14.55;;;7.03;;
77136;SDS011;66102;48.542;-2.970;2023-02-15T05:31:31;13.10;;;7.07;;
77136;SDS011;66102;48.542;-2.970;2023-02-15T05:33:58;14.20;;;6.88;;
77136;SDS011;66102;48.542;-2.970;2023-02-15T05:36:24;13.30;;;7.55;;
77136;SDS011;66102;48.542;-2.970;2023-02-15T05:38:50;14.40;;;7.38;;
77136;SDS011;66102;48.542;-2.970;2023-02-15T05:41:16;13.80;;;7.45;;
77136;SDS011;66102;48.542;-2.970;2023-02-15T05:43:42;15.80;;;6.65;;
77136;SDS011;66102;48.542;-2.970;2023-02-15T05:46:08;13.75;;;6.70;;
77136;SDS011;66102;48.542;-2.970;2023-02-15T05:48:35;12.82;;;7.63;;
77136;SDS011;66102;48.542;-2.970;2023-02-15T05:51:02;12.35;;;7.07;;
77136;SDS011;66102;48.542;-2.970;2023-02-15T05:53:29;14.43;;;6.95;;
77136;SDS011;66102;48.542;-2.970;2023-02-15T05:55:56;12.98;;;6.97;;
77136;SDS011;66102;48.542;-2.970;2023-02-15T05:58:28;13.68;;;8.18;;
77136;SDS011;66102;48.542;-2.970;2023-02-15T06:00:54;13.05;;;8.10;;
77136;SDS011;66102;48.542;-2.970;2023-02-15T06:03:20;15.18;;;7.90;;
77136;SDS011;66102;48.542;-2.970;2023-02-15T06:05:47;14.85;;;7.43;;
77136;SDS011;66102;48.542;-2.970;2023-02-15T06:08:13;15.35;;;6.97;;
77136;SDS011;66102;48.542;-2.970;2023-02-15T06:10:39;15.32;;;8.23;;
77136;SDS011;66102;48.542;-2.970;2023-02-15T06:13:05;14.15;;;7.53;;
77136;SDS011;66102;48.542;-2.970;2023-02-15T06:15:31;16.33;;;8.15;;
77136;SDS011;66102;48.542;-2.970;2023-02-15T06:17:57;12.95;;;7.03;;
77136;SDS011;66102;48.542;-2.970;2023-02-15T06:20:23;13.68;;;7.45;;
77136;SDS011;66102;48.542;-2.970;2023-02-15T06:22:49;15.05;;;6.88;;
77136;SDS011;66102;48.542;-2.970;2023-02-15T06:25:15;16.88;;;8.38;;
77136;SDS011;66102;48.542;-2.970;2023-02-15T06:27:42;15.13;;;7.47;;
77136;SDS011;66102;48.542;-2.970;2023-02-15T06:30:08;15.20;;;7.75;;
77136;SDS011;66102;48.542;-2.970;2023-02-15T06:32:35;14.32;;;7.80;;
77136;SDS011;66102;48.542;-2.970;2023-02-15T06:35:01;15.63;;;8.18;;
77136;SDS011;66102;48.542;-2.970;2023-02-15T06:37:27;13.60;;;7.60;;
77136;SDS011;66102;48.542;-2.970;2023-02-15T06:39:53;17.30;;;8.55;;
77136;SDS011;66102;48.542;-2.970;2023-02-15T06:42:19;14.75;;;8.50;;
77136;SDS011;66102;48.542;-2.970;2023-02-15T06:44:45;17.92;;;8.52;;
77136;SDS011;66102;48.542;-2.970;2023-02-15T06:47:11;17.45;;;8.63;;
77136;SDS011;66102;48.542;-2.970;2023-02-15T06:49:37;17.02;;;8.48;;
77136;SDS011;66102;48.542;-2.970;2023-02-15T06:52:03;14.30;;;7.13;;
77136;SDS011;66102;48.542;-2.970;2023-02-15T06:54:30;16.50;;;7.78;;
77136;SDS011;66102;48.542;-2.970;2023-02-15T06:56:56;14.60;;;7.57;;
77136;SDS011;66102;48.542;-2.970;2023-02-15T06:59:22;17.30;;;10.07;;
77136;SDS011;66102;48.542;-2.970;2023-02-15T07:01:48;17.75;;;9.82;;
77136;SDS011;66102;48.542;-2.970;2023-02-15T07:04:14;16.02;;;8.75;;
77136;SDS011;66102;48.542;-2.970;2023-02-15T07:06:40;14.70;;;8.48;;
77136;SDS011;66102;48.542;-2.970;2023-02-15T07:09:06;16.88;;;9.20;;
77136;SDS011;66102;48.542;-2.970;2023-02-15T07:11:33;17.75;;;8.52;;
77136;SDS011;66102;48.542;-2.970;2023-02-15T07:14:17;17.23;;;9.35;;
77136;SDS011;66102;48.542;-2.970;2023-02-15T07:16:43;18.35;;;9.45;;
77136;SDS011;66102;48.542;-2.970;2023-02-15T07:19:10;15.63;;;8.30;;
77136;SDS011;66102;48.542;-2.970;2023-02-15T07:21:36;17.20;;;7.70;;
77136;SDS011;66102;48.542;-2.970;2023-02-15T07:24:02;16.55;;;9.15;;
77136;SDS011;66102;48.542;-2.970;2023-02-15T07:26:28;16.95;;;8.93;;
77136;SDS011;66102;48.542;-2.970;2023-02-15T07:28:54;20.67;;;9.20;;
77136;SDS011;66102;48.542;-2.970;2023-02-15T07:31:20;17.30;;;8.98;;
77136;SDS011;66102;48.542;-2.970;2023-02-15T07:33:46;17.83;;;9.18;;
77136;SDS011;66102;48.542;-2.970;2023-02-15T07:36:12;16.90;;;9.35;;
77136;SDS011;66102;48.542;-2.970;2023-02-15T07:38:39;17.17;;;9.88;;
77136;SDS011;66102;48.542;-2.970;2023-02-15T07:41:06;16.30;;;9.75;;
77136;SDS011;66102;48.542;-2.970;2023-02-15T07:43:33;17.30;;;9.50;;
77136;SDS011;66102;48.542;-2.970;2023-02-15T07:46:00;17.45;;;9.52;;
77136;SDS011;66102;48.542;-2.970;2023-02-15T07:48:26;17.80;;;8.90;;
77136;SDS011;66102;48.542;-2.970;2023-02-15T07:50:52;19.45;;;9.45;;
77136;SDS011;66102;48.542;-2.970;2023-02-15T07:53:19;18.27;;;8.77;;
77136;SDS011;66102;48.542;-2.970;2023-02-15T07:55:45;17.45;;;9.30;;
77136;SDS011;66102;48.542;-2.970;2023-02-15T07:58:11;20.02;;;10.23;;
77136;SDS011;66102;48.542;-2.970;2023-02-15T08:00:38;19.67;;;9.55;;
77136;SDS011;66102;48.542;-2.970;2023-02-15T08:03:26;16.20;;;9.23;;
77136;SDS011;66102;48.542;-2.970;2023-02-15T08:05:56;18.30;;;8.65;;
77136;SDS011;66102;48.542;-2.970;2023-02-15T08:08:23;15.85;;;9.25;;
77136;SDS011;66102;48.542;-2.970;2023-02-15T08:13:44;19.92;;;10.23;;
77136;SDS011;66102;48.542;-2.970;2023-02-15T08:16:21;16.60;;;9.38;;
77136;SDS011;66102;48.542;-2.970;2023-02-15T08:18:48;14.90;;;8.90;;
77136;SDS011;66102;48.542;-2.970;2023-02-15T08:21:16;17.60;;;9.43;;
77136;SDS011;66102;48.542;-2.970;2023-02-15T08:23:43;16.73;;;8.57;;
77136;SDS011;66102;48.542;-2.970;2023-02-15T08:26:09;17.00;;;9.23;;
77136;SDS011;66102;48.542;-2.970;2023-02-15T08:28:35;17.10;;;9.10;;
77136;SDS011;66102;48.542;-2.970;2023-02-15T08:31:08;17.10;;;8.68;;
77136;SDS011;66102;48.542;-2.970;2023-02-15T08:33:34;17.48;;;9.50;;
77136;SDS011;66102;48.542;-2.970;2023-02-15T08:38:30;16.92;;;9.50;;
77136;SDS011;66102;48.542;-2.970;2023-02-15T08:40:57;17.08;;;9.20;;
77136;SDS011;66102;48.542;-2.970;2023-02-15T08:43:23;20.15;;;9.98;;
77136;SDS011;66102;48.542;-2.970;2023-02-15T08:45:49;15.90;;;8.52;;
77136;SDS011;66102;48.542;-2.970;2023-02-15T08:48:15;14.77;;;9.20;;
77136;SDS011;66102;48.542;-2.970;2023-02-15T08:50:41;16.73;;;9.02;;
77136;SDS011;66102;48.542;-2.970;2023-02-15T08:53:07;16.92;;;9.18;;
77136;SDS011;66102;48.542;-2.970;2023-02-15T08:55:33;15.73;;;9.52;;
77136;SDS011;66102;48.542;-2.970;2023-02-15T08:57:59;16.33;;;8.40;;
77136;SDS011;66102;48.542;-2.970;2023-02-15T09:00:25;15.10;;;8.23;;
77136;SDS011;66102;48.542;-2.970;2023-02-15T09:02:51;15.85;;;9.15;;
77136;SDS011;66102;48.542;-2.970;2023-02-15T09:05:17;16.88;;;9.07;;
77136;SDS011;66102;48.542;-2.970;2023-02-15T09:07:43;15.32;;;8.43;;
77136;SDS011;66102;48.542;-2.970;2023-02-15T09:10:09;15.07;;;9.00;;
77136;SDS011;66102;48.542;-2.970;2023-02-15T09:12:35;17.40;;;8.43;;
77136;SDS011;66102;48.542;-2.970;2023-02-15T09:15:01;15.43;;;9.00;;
77136;SDS011;66102;48.542;-2.970;2023-02-15T09:17:27;13.90;;;7.88;;
77136;SDS011;66102;48.542;-2.970;2023-02-15T09:19:53;17.38;;;8.38;;
77136;SDS011;66102;48.542;-2.970;2023-02-15T09:22:19;15.25;;;7.90;;
77136;SDS011;66102;48.542;-2.970;2023-02-15T09:24:45;12.43;;;7.32;;
77136;SDS011;66102;48.542;-2.970;2023-02-15T09:27:11;13.73;;;7.60;;
77136;SDS011;66102;48.542;-2.970;2023-02-15T09:29:37;17.05;;;8.13;;
77136;SDS011;66102;48.542;-2.970;2023-02-15T09:32:04;15.38;;;8.70;;
77136;SDS011;66102;48.542;-2.970;2023-02-15T09:34:30;18.40;;;8.85;;
77136;SDS011;66102;48.542;-2.970;2023-02-15T09:36:56;13.93;;;8.40;;
77136;SDS011;66102;48.542;-2.970;2023-02-15T09:39:23;14.98;;;8.60;;
77136;SDS011;66102;48.542;-2.970;2023-02-15T09:49:39;15.55;;;8.13;;
77136;SDS011;66102;48.542;-2.970;2023-02-15T09:57:15;13.55;;;7.80;;
77136;SDS011;66102;48.542;-2.970;2023-02-15T09:59:58;16.25;;;8.25;;
77136;SDS011;66102;48.542;-2.970;2023-02-15T10:02:44;17.05;;;6.95;;
77136;SDS011;66102;48.542;-2.970;2023-02-15T10:08:40;15.13;;;7.72;;
77136;SDS011;66102;48.542;-2.970;2023-02-15T10:11:03;15.48;;;8.07;;
77136;SDS011;66102;48.542;-2.970;2023-02-15T10:17:00;13.85;;;7.05;;
77136;SDS011;66102;48.542;-2.970;2023-02-15T10:27:09;11.90;;;6.78;;
77136;SDS011;66102;48.542;-2.970;2023-02-15T10:29:38;11.40;;;5.45;;
77136;SDS011;66102;48.542;-2.970;2023-02-15T10:32:22;10.95;;;4.88;;
77136;SDS011;66102;48.542;-2.970;2023-02-15T10:35:01;8.48;;;4.80;;
77136;SDS011;66102;48.542;-2.970;2023-02-15T10:40:00;10.68;;;4.53;;
77136;SDS011;66102;48.542;-2.970;2023-02-15T10:50:49;9.40;;;4.85;;
77136;SDS011;66102;48.542;-2.970;2023-02-15T10:55:55;10.10;;;5.43;;
77136;SDS011;66102;48.542;-2.970;2023-02-15T11:01:08;10.23;;;5.35;;
77136;SDS011;66102;48.542;-2.970;2023-02-15T11:06:09;8.75;;;4.78;;
77136;SDS011;66102;48.542;-2.970;2023-02-15T11:08:43;10.20;;;5.22;;
77136;SDS011;66102;48.542;-2.970;2023-02-15T11:11:12;9.30;;;5.20;;
77136;SDS011;66102;48.542;-2.970;2023-02-15T11:13:46;9.27;;;4.95;;
77136;SDS011;66102;48.542;-2.970;2023-02-15T11:16:20;9.05;;;4.65;;
77136;SDS011;66102;48.542;-2.970;2023-02-15T11:18:57;10.23;;;6.05;;
77136;SDS011;66102;48.542;-2.970;2023-02-15T11:22:06;10.27;;;5.47;;
77136;SDS011;66102;48.542;-2.970;2023-02-15T11:24:16;11.63;;;5.95;;
77136;SDS011;66102;48.542;-2.970;2023-02-15T11:29:22;9.18;;;5.30;;
77136;SDS011;66102;48.542;-2.970;2023-02-15T11:31:53;12.18;;;4.97;;
77136;SDS011;66102;48.542;-2.970;2023-02-15T11:36:52;10.43;;;5.38;;
77136;SDS011;66102;48.542;-2.970;2023-02-15T11:39:19;8.85;;;4.82;;
77136;SDS011;66102;48.542;-2.970;2023-02-15T11:41:53;11.30;;;4.72;;
77136;SDS011;66102;48.542;-2.970;2023-02-15T11:44:42;9.55;;;4.90;;
77136;SDS011;66102;48.542;-2.970;2023-02-15T11:47:09;8.65;;;5.05;;
77136;SDS011;66102;48.542;-2.970;2023-02-15T11:49:36;10.43;;;4.65;;
77136;SDS011;66102;48.542;-2.970;2023-02-15T11:52:04;8.00;;;4.72;;
77136;SDS011;66102;48.542;-2.970;2023-02-15T11:54:31;8.30;;;4.18;;
77136;SDS011;66102;48.542;-2.970;2023-02-15T11:57:03;12.00;;;4.10;;
77136;SDS011;66102;48.542;-2.970;2023-02-15T11:59:32;7.32;;;3.92;;
77136;SDS011;66102;48.542;-2.970;2023-02-15T12:02:01;10.00;;;4.03;;
77136;SDS011;66102;48.542;-2.970;2023-02-15T12:04:38;7.30;;;3.88;;
77136;SDS011;66102;48.542;-2.970;2023-02-15T12:07:10;7.95;;;3.72;;
77136;SDS011;66102;48.542;-2.970;2023-02-15T12:12:26;12.18;;;4.38;;
77136;SDS011;66102;48.542;-2.970;2023-02-15T12:14:53;8.52;;;4.72;;
77136;SDS011;66102;48.542;-2.970;2023-02-15T12:17:21;8.23;;;4.60;;
77136;SDS011;66102;48.542;-2.970;2023-02-15T12:19:47;10.48;;;4.10;;
77136;SDS011;66102;48.542;-2.970;2023-02-15T12:22:21;9.70;;;4.63;;
77136;SDS011;66102;48.542;-2.970;2023-02-15T12:24:49;9.75;;;3.90;;
77136;SDS011;66102;48.542;-2.970;2023-02-15T12:27:19;9.15;;;4.40;;
77136;SDS011;66102;48.542;-2.970;2023-02-15T12:32:26;7.35;;;4.22;;
77136;SDS011;66102;48.542;-2.970;2023-02-15T12:35:16;8.98;;;3.78;;
77136;SDS011;66102;48.542;-2.970;2023-02-15T12:37:39;8.48;;;4.03;;
77136;SDS011;66102;48.542;-2.970;2023-02-15T12:40:24;9.52;;;4.72;;
77136;SDS011;66102;48.542;-2.970;2023-02-15T12:42:51;8.57;;;4.13;;
77136;SDS011;66102;48.542;-2.970;2023-02-15T12:45:22;9.52;;;4.18;;
77136;SDS011;66102;48.542;-2.970;2023-02-15T12:48:07;8.73;;;4.10;;
77136;SDS011;66102;48.542;-2.970;2023-02-15T12:50:34;8.07;;;4.45;;
77136;SDS011;66102;48.542;-2.970;2023-02-15T12:53:07;7.80;;;4.55;;
77136;SDS011;66102;48.542;-2.970;2023-02-15T12:55:34;8.75;;;3.83;;
77136;SDS011;66102;48.542;-2.970;2023-02-15T12:58:07;8.43;;;3.45;;
77136;SDS011;66102;48.542;-2.970;2023-02-15T13:00:33;9.70;;;3.20;;
77136;SDS011;66102;48.542;-2.970;2023-02-15T13:02:59;8.38;;;2.83;;
77136;SDS011;66102;48.542;-2.970;2023-02-15T13:08:20;8.20;;;2.60;;
77136;SDS011;66102;48.542;-2.970;2023-02-15T13:10:58;8.30;;;3.40;;
77136;SDS011;66102;48.542;-2.970;2023-02-15T13:13:29;9.27;;;3.25;;
77136;SDS011;66102;48.542;-2.970;2023-02-15T13:15:59;8.45;;;2.97;;
77136;SDS011;66102;48.542;-2.970;2023-02-15T13:18:37;8.23;;;3.10;;
77136;SDS011;66102;48.542;-2.970;2023-02-15T13:23:36;8.82;;;2.78;;
77136;SDS011;66102;48.542;-2.970;2023-02-15T13:26:04;9.27;;;4.15;;
77136;SDS011;66102;48.542;-2.970;2023-02-15T13:28:38;6.70;;;3.78;;
77136;SDS011;66102;48.542;-2.970;2023-02-15T13:31:08;8.57;;;3.80;;
77136;SDS011;66102;48.542;-2.970;2023-02-15T13:33:37;9.20;;;4.20;;
77136;SDS011;66102;48.542;-2.970;2023-02-15T13:41:27;12.10;;;5.50;;
77136;SDS011;66102;48.542;-2.970;2023-02-15T13:44:05;10.65;;;6.05;;
77136;SDS011;66102;48.542;-2.970;2023-02-15T13:54:32;11.00;;;4.97;;
77136;SDS011;66102;48.542;-2.970;2023-02-15T14:02:00;13.43;;;6.10;;
77136;SDS011;66102;48.542;-2.970;2023-02-15T14:04:41;12.18;;;6.30;;
77136;SDS011;66102;48.542;-2.970;2023-02-15T14:17:20;13.50;;;5.43;;
77136;SDS011;66102;48.542;-2.970;2023-02-15T14:19:50;12.40;;;5.78;;
77136;SDS011;66102;48.542;-2.970;2023-02-15T14:22:30;11.82;;;4.82;;
77136;SDS011;66102;48.542;-2.970;2023-02-15T14:27:45;10.30;;;4.32;;
77136;SDS011;66102;48.542;-2.970;2023-02-15T14:30:19;13.20;;;5.63;;
77136;SDS011;66102;48.542;-2.970;2023-02-15T14:32:47;11.30;;;5.50;;
77136;SDS011;66102;48.542;-2.970;2023-02-15T14:35:18;10.73;;;4.85;;
77136;SDS011;66102;48.542;-2.970;2023-02-15T14:43:29;10.43;;;5.05;;
77136;SDS011;66102;48.542;-2.970;2023-02-15T14:46:00;9.50;;;4.80;;
77136;SDS011;66102;48.542;-2.970;2023-02-15T14:48:30;8.48;;;4.20;;
77136;SDS011;66102;48.542;-2.970;2023-02-15T14:50:56;11.48;;;4.30;;
77136;SDS011;66102;48.542;-2.970;2023-02-15T14:53:33;11.32;;;5.05;;
77136;SDS011;66102;48.542;-2.970;2023-02-15T14:58:33;9.10;;;4.53;;
77136;SDS011;66102;48.542;-2.970;2023-02-15T15:01:06;8.90;;;4.57;;
77136;SDS011;66102;48.542;-2.970;2023-02-15T15:03:32;9.27;;;4.53;;
77136;SDS011;66102;48.542;-2.970;2023-02-15T15:06:02;10.40;;;4.25;;
77136;SDS011;66102;48.542;-2.970;2023-02-15T15:08:36;9.18;;;4.80;;
77136;SDS011;66102;48.542;-2.970;2023-02-15T15:13:52;11.57;;;4.40;;
77136;SDS011;66102;48.542;-2.970;2023-02-15T15:16:27;7.72;;;4.50;;
77136;SDS011;66102;48.542;-2.970;2023-02-15T15:18:54;9.52;;;4.25;;
77136;SDS011;66102;48.542;-2.970;2023-02-15T15:24:06;10.57;;;4.38;;
77136;SDS011;66102;48.542;-2.970;2023-02-15T15:26:32;9.43;;;4.40;;
77136;SDS011;66102;48.542;-2.970;2023-02-15T15:29:02;11.43;;;4.20;;
77136;SDS011;66102;48.542;-2.970;2023-02-15T15:45:56;11.93;;;5.10;;
77136;SDS011;66102;48.542;-2.970;2023-02-15T15:50:32;10.85;;;4.88;;
77136;SDS011;66102;48.542;-2.970;2023-02-15T15:52:59;10.43;;;5.15;;
77136;SDS011;66102;48.542;-2.970;2023-02-15T15:55:27;11.50;;;5.63;;
77136;SDS011;66102;48.542;-2.970;2023-02-15T15:57:59;11.07;;;5.47;;
77136;SDS011;66102;48.542;-2.970;2023-02-15T16:02:52;13.95;;;5.95;;
77136;SDS011;66102;48.542;-2.970;2023-02-15T16:05:21;11.45;;;6.43;;
77136;SDS011;66102;48.542;-2.970;2023-02-15T16:07:47;10.93;;;5.70;;
77136;SDS011;66102;48.542;-2.970;2023-02-15T16:10:24;11.57;;;5.93;;
77136;SDS011;66102;48.542;-2.970;2023-02-15T16:12:51;12.77;;;5.47;;
77136;SDS011;66102;48.542;-2.970;2023-02-15T16:15:21;13.45;;;6.68;;
77136;SDS011;66102;48.542;-2.970;2023-02-15T16:22:43;12.27;;;6.70;;
77136;SDS011;66102;48.542;-2.970;2023-02-15T16:27:42;12.23;;;5.80;;
77136;SDS011;66102;48.542;-2.970;2023-02-15T16:32:44;12.27;;;5.85;;
77136;SDS011;66102;48.542;-2.970;2023-02-15T16:35:13;13.05;;;5.65;;
77136;SDS011;66102;48.542;-2.970;2023-02-15T16:37:40;13.73;;;5.68;;
77136;SDS011;66102;48.542;-2.970;2023-02-15T16:40:06;10.00;;;5.97;;
77136;SDS011;66102;48.542;-2.970;2023-02-15T16:42:33;16.90;;;6.72;;
77136;SDS011;66102;48.542;-2.970;2023-02-15T16:47:29;11.18;;;5.47;;
77136;SDS011;66102;48.542;-2.970;2023-02-15T16:49:57;10.95;;;5.75;;
77136;SDS011;66102;48.542;-2.970;2023-02-15T16:52:25;12.15;;;6.05;;
77136;SDS011;66102;48.542;-2.970;2023-02-15T16:54:53;14.05;;;6.35;;
77136;SDS011;66102;48.542;-2.970;2023-02-15T16:57:21;13.45;;;5.50;;
77136;SDS011;66102;48.542;-2.970;2023-02-15T16:59:48;15.63;;;6.22;;
77136;SDS011;66102;48.542;-2.970;2023-02-15T17:02:19;13.35;;;6.45;;
77136;SDS011;66102;48.542;-2.970;2023-02-15T17:05:06;11.90;;;5.53;;
77136;SDS011;66102;48.542;-2.970;2023-02-15T17:07:32;10.60;;;5.50;;
77136;SDS011;66102;48.542;-2.970;2023-02-15T17:09:59;12.30;;;6.57;;
77136;SDS011;66102;48.542;-2.970;2023-02-15T17:17:56;14.23;;;5.95;;
77136;SDS011;66102;48.542;-2.970;2023-02-15T17:20:23;12.75;;;6.00;;
77136;SDS011;66102;48.542;-2.970;2023-02-15T17:22:49;11.73;;;5.88;;
77136;SDS011;66102;48.542;-2.970;2023-02-15T17:25:20;11.55;;;5.50;;
77136;SDS011;66102;48.542;-2.970;2023-02-15T17:27:50;11.00;;;5.95;;
77136;SDS011;66102;48.542;-2.970;2023-02-15T17:30:17;11.48;;;6.15;;
77136;SDS011;66102;48.542;-2.970;2023-02-15T17:32:57;11.80;;;5.60;;
77136;SDS011;66102;48.542;-2.970;2023-02-15T17:35:26;13.60;;;6.20;;
77136;SDS011;66102;48.542;-2.970;2023-02-15T17:38:35;13.38;;;6.72;;
77136;SDS011;66102;48.542;-2.970;2023-02-15T17:43:07;14.98;;;6.70;;
77136;SDS011;66102;48.542;-2.970;2023-02-15T17:45:35;11.77;;;6.15;;
77136;SDS011;66102;48.542;-2.970;2023-02-15T17:48:04;10.45;;;6.50;;